Coslada, Spain
Current Conditions -  °F | °C
As of 8:30 AM on Thursday 18 Dec 2014 (Local Time) from LEMD Reporting Station
Clear Clear  
Wind Chill: 32°   Ceiling: Unl
Heat Index: 32°   Visibility: 4mi
Dew Point: 32°   Wind: 3mph
Humidity: 100%   Direction: 340°NNW
Pressure: 30.36"   Gusts: NA
Location:  40.42°N, 3.56°W
Report Text: LEMD 180730Z 34003KT 7000 NSC M00/M00 Q1028 NOSIG
Loading
Personal Weather Stations






























Interactive Weather Map New forecast layout! Learn more

10-Day Weather Forecast

Advertisements
Track Severe Weather on mobile